createdAt,value
2018-06-30T00:01:34.626Z,100397.27
2018-06-30T00:04:05.300Z,100391.70
2018-06-30T00:06:36.051Z,100396.57
2018-06-30T00:09:09.537Z,100390.74
2018-06-30T00:11:40.307Z,100392.69
2018-06-30T00:14:10.997Z,100387.69
2018-06-30T00:16:41.685Z,100395.73
2018-06-30T00:19:12.376Z,100391.83
2018-06-30T00:21:43.064Z,100389.77
2018-06-30T00:24:13.803Z,100392.23
2018-06-30T00:26:44.517Z,100388.93
2018-06-30T00:29:15.239Z,100388.44
2018-06-30T00:31:45.926Z,100384.22
2018-06-30T00:34:16.620Z,100388.47
2018-06-30T00:36:47.341Z,100386.29
2018-06-30T00:39:18.050Z,100388.78
2018-06-30T00:41:48.703Z,100392.06
2018-06-30T00:44:19.696Z,100390.14
2018-06-30T00:46:50.402Z,100383.57
2018-06-30T00:49:21.248Z,100381.03
2018-06-30T00:51:51.936Z,100381.64
2018-06-30T00:54:22.633Z,100386.26
2018-06-30T00:56:53.316Z,100379.92
2018-06-30T00:59:24.019Z,100377.73
2018-06-30T01:01:54.692Z,100375.33
2018-06-30T01:04:25.369Z,100384.30
2018-06-30T01:06:56.131Z,100383.33
2018-06-30T01:09:27.163Z,100382.35
2018-06-30T01:11:57.841Z,100382.71
2018-06-30T01:14:28.728Z,100385.61
2018-06-30T01:16:59.447Z,100390.22
2018-06-30T01:19:30.096Z,100398.70
2018-06-30T01:22:00.830Z,100395.44
2018-06-30T01:24:31.500Z,100394.23
2018-06-30T01:27:02.195Z,100389.37
2018-06-30T01:29:32.875Z,100390.58
2018-06-30T01:32:03.624Z,100392.62
2018-06-30T01:34:34.343Z,100386.07
2018-06-30T01:37:04.755Z,100390.68
2018-06-30T01:39:35.304Z,100381.09
2018-06-30T01:42:06.013Z,100382.55
2018-06-30T01:44:36.673Z,100380.48
2018-06-30T01:47:07.368Z,100378.64
2018-06-30T01:49:38.314Z,100376.32
2018-06-30T01:52:08.974Z,100374.26
2018-06-30T01:54:39.690Z,100371.84
2018-06-30T01:57:10.405Z,100376.92
2018-06-30T01:59:41.081Z,100368.54
2018-06-30T02:02:11.743Z,100371.88
2018-06-30T02:04:42.432Z,100374.80
2018-06-30T02:07:13.197Z,100366.66
2018-06-30T02:09:43.860Z,100367.96
2018-06-30T02:12:14.568Z,100369.52
2018-06-30T02:14:45.249Z,100373.77
2018-06-30T02:17:15.926Z,100362.11
2018-06-30T02:19:46.608Z,100360.48
2018-06-30T02:22:17.308Z,100361.07
2018-06-30T02:24:47.988Z,100368.20
2018-06-30T02:27:18.790Z,100360.03
2018-06-30T02:33:23.367Z,100359.17
2018-06-30T02:35:54.029Z,100359.64
2018-06-30T02:38:24.750Z,100360.36
2018-06-30T02:40:55.429Z,100359.36
2018-06-30T02:43:26.088Z,100360.30
2018-06-30T02:45:56.834Z,100361.63
2018-06-30T02:48:27.416Z,100361.38
2018-06-30T02:50:58.105Z,100357.49
2018-06-30T02:53:28.877Z,100361.11
2018-06-30T02:55:59.591Z,100360.97
2018-06-30T02:58:30.304Z,100364.44
2018-06-30T03:01:01.027Z,100361.56
2018-06-30T03:03:31.775Z,100359.84
2018-06-30T03:06:02.469Z,100363.38
2018-06-30T03:08:33.160Z,100363.84
2018-06-30T03:11:03.819Z,100359.84
2018-06-30T03:13:34.497Z,100365.63
2018-06-30T03:18:50.139Z,100360.30
2018-06-30T03:21:20.825Z,100357.58
2018-06-30T03:23:51.535Z,100359.00
2018-06-30T03:26:22.217Z,100353.92
2018-06-30T03:28:52.975Z,100356.31
2018-06-30T03:31:23.739Z,100358.84
2018-06-30T03:33:54.490Z,100356.17
2018-06-30T03:36:25.190Z,100361.23
2018-06-30T03:38:55.897Z,100362.19
2018-06-30T03:41:26.602Z,100364.84
2018-06-30T03:43:57.319Z,100361.23
2018-06-30T03:46:27.987Z,100364.76
2018-06-30T03:48:58.675Z,100351.91
2018-06-30T03:51:29.359Z,100358.92
2018-06-30T03:54:00.049Z,100360.77
2018-06-30T03:56:30.717Z,100361.59
2018-06-30T03:59:01.503Z,100355.94
2018-06-30T04:01:32.203Z,100355.84
2018-06-30T04:04:02.954Z,100356.20
2018-06-30T04:06:33.680Z,100356.20
2018-06-30T04:09:06.234Z,100355.60
2018-06-30T04:11:36.947Z,100356.20
2018-06-30T04:14:07.842Z,100357.44
2018-06-30T04:16:38.563Z,100360.60
2018-06-30T04:19:16.563Z,100367.94
2018-06-30T04:21:48.013Z,100370.70
2018-06-30T04:24:18.764Z,100367.11
2018-06-30T04:26:49.449Z,100371.10
2018-06-30T04:29:20.197Z,100371.75
2018-06-30T04:31:50.894Z,100363.63
2018-06-30T04:34:21.611Z,100364.49
2018-06-30T04:36:52.337Z,100359.18
2018-06-30T04:39:23.103Z,100364.63
2018-06-30T04:41:53.803Z,100363.56
2018-06-30T04:44:24.502Z,100363.91
2018-06-30T04:46:55.213Z,100358.37
2018-06-30T04:49:25.899Z,100365.22
2018-06-30T04:51:56.576Z,100367.16
2018-06-30T04:54:27.276Z,100369.37
2018-06-30T04:56:57.675Z,100366.70
2018-06-30T04:59:28.272Z,100374.53
2018-06-30T05:01:58.920Z,100383.02
2018-06-30T05:04:29.604Z,100382.54
2018-06-30T05:07:00.347Z,100379.41
2018-06-30T05:09:31.060Z,100388.39
2018-06-30T05:12:01.761Z,100394.50
2018-06-30T05:14:32.433Z,100391.11
2018-06-30T05:17:03.127Z,100392.10
2018-06-30T05:19:33.812Z,100388.48
2018-06-30T05:22:04.535Z,100393.09
2018-06-30T05:24:35.255Z,100395.09
2018-06-30T05:27:06.551Z,100393.67
2018-06-30T05:29:37.293Z,100396.59
2018-06-30T05:32:08.013Z,100394.27
2018-06-30T05:34:38.763Z,100395.41
2018-06-30T05:37:09.437Z,100396.49
2018-06-30T05:39:40.187Z,100389.85
2018-06-30T05:42:10.907Z,100384.38
2018-06-30T05:44:41.647Z,100387.31
2018-06-30T05:47:12.335Z,100387.08
2018-06-30T05:49:43.073Z,100385.75
2018-06-30T05:52:13.870Z,100387.94
2018-06-30T05:54:44.622Z,100386.01
2018-06-30T05:57:15.350Z,100378.48
2018-06-30T05:59:46.100Z,100388.22
2018-06-30T06:02:16.897Z,100388.69
2018-06-30T06:04:47.592Z,100385.30
2018-06-30T06:07:18.355Z,100384.33
2018-06-30T06:09:49.962Z,100374.00
2018-06-30T06:12:20.692Z,100375.92
2018-06-30T06:14:51.440Z,100377.72
2018-06-30T06:17:21.806Z,100377.31
2018-06-30T06:19:52.428Z,100383.36
2018-06-30T06:22:23.149Z,100377.01
2018-06-30T06:24:53.844Z,100379.53
2018-06-30T06:27:24.625Z,100378.63
2018-06-30T06:29:55.259Z,100380.52
2018-06-30T06:32:26.004Z,100385.39
2018-06-30T06:34:56.703Z,100382.42
2018-06-30T06:37:27.538Z,100386.67
2018-06-30T06:39:58.196Z,100381.73
2018-06-30T06:42:28.917Z,100383.72
2018-06-30T06:44:59.618Z,100389.48
2018-06-30T06:47:30.354Z,100385.08
2018-06-30T06:50:01.027Z,100384.62
2018-06-30T06:52:31.761Z,100382.25
2018-06-30T06:55:02.487Z,100382.13
2018-06-30T06:57:33.255Z,100377.00
2018-06-30T07:00:04.012Z,100379.31
2018-06-30T07:02:34.715Z,100379.48
2018-06-30T07:05:05.737Z,100384.42
2018-06-30T07:07:36.524Z,100384.00
2018-06-30T07:10:07.459Z,100381.32
2018-06-30T07:12:38.221Z,100387.95
2018-06-30T07:15:09.186Z,100390.43
2018-06-30T07:17:39.986Z,100389.86
2018-06-30T07:20:41.812Z,100380.97
2018-06-30T07:23:12.485Z,100385.48
2018-06-30T07:25:43.204Z,100390.31
2018-06-30T07:28:13.938Z,100387.45
2018-06-30T07:30:44.648Z,100389.59
2018-06-30T07:33:15.496Z,100390.23
2018-06-30T07:35:46.200Z,100383.53
2018-06-30T07:38:16.908Z,100389.58
2018-06-30T07:40:47.658Z,100385.27
2018-06-30T07:43:18.448Z,100392.23
2018-06-30T07:45:49.121Z,100387.29
2018-06-30T07:48:19.800Z,100379.56
2018-06-30T07:50:50.525Z,100384.39
2018-06-30T07:53:21.267Z,100376.31
2018-06-30T07:55:51.955Z,100373.55
2018-06-30T07:58:22.688Z,100375.97
2018-06-30T08:00:53.429Z,100376.44
2018-06-30T08:03:24.142Z,100379.48
2018-06-30T08:05:54.837Z,100386.30
2018-06-30T08:08:25.516Z,100383.73
2018-06-30T08:10:56.221Z,100384.36
2018-06-30T08:13:26.980Z,100385.64
2018-06-30T08:15:57.685Z,100387.39
2018-06-30T08:18:28.412Z,100386.28
2018-06-30T08:20:59.154Z,100385.70
2018-06-30T08:23:29.920Z,100386.25
2018-06-30T08:26:00.674Z,100383.91
2018-06-30T08:28:31.348Z,100393.11
2018-06-30T08:31:02.080Z,100391.61
2018-06-30T08:33:32.856Z,100393.13
2018-06-30T08:36:03.571Z,100391.08
2018-06-30T08:38:34.316Z,100390.06
2018-06-30T08:41:05.024Z,100394.25
2018-06-30T08:43:35.755Z,100390.77
2018-06-30T08:46:07.031Z,100389.25
2018-06-30T08:48:37.376Z,100393.64
2018-06-30T08:51:08.028Z,100389.75
2018-06-30T08:53:38.676Z,100395.45
2018-06-30T08:56:09.386Z,100384.78
2018-06-30T08:58:40.523Z,100378.16
2018-06-30T09:01:11.224Z,100383.59
2018-06-30T09:03:41.995Z,100385.00
2018-06-30T09:06:12.656Z,100378.08
2018-06-30T09:08:43.413Z,100380.59
2018-06-30T09:11:14.183Z,100376.31
2018-06-30T09:13:44.902Z,100375.67
2018-06-30T09:16:15.787Z,100378.03
2018-06-30T09:18:46.536Z,100381.12
2018-06-30T09:21:17.311Z,100379.69
2018-06-30T09:23:48.004Z,100381.02
2018-06-30T09:26:18.712Z,100381.92
2018-06-30T09:28:49.420Z,100387.09
2018-06-30T09:31:20.201Z,100386.99
2018-06-30T09:33:50.880Z,100389.44
2018-06-30T09:36:21.627Z,100391.00
2018-06-30T09:38:52.288Z,100387.22
2018-06-30T09:41:23.024Z,100383.38
2018-06-30T09:43:53.735Z,100384.41
2018-06-30T09:46:24.563Z,100382.30
2018-06-30T09:48:55.284Z,100383.27
2018-06-30T09:51:26.029Z,100374.56
2018-06-30T09:53:56.713Z,100372.39
2018-06-30T09:56:27.417Z,100370.44
2018-06-30T09:58:58.107Z,100384.92
2018-06-30T10:01:28.819Z,100372.78
2018-06-30T10:03:59.519Z,100375.23
2018-06-30T10:06:30.256Z,100371.92
2018-06-30T10:09:00.988Z,100371.20
2018-06-30T10:11:31.727Z,100375.67
2018-06-30T10:14:02.423Z,100373.89
2018-06-30T10:16:33.139Z,100369.78
2018-06-30T10:19:03.956Z,100375.43
2018-06-30T10:21:34.660Z,100368.99
2018-06-30T10:24:05.455Z,100382.74
2018-06-30T10:26:36.169Z,100377.02
2018-06-30T10:29:06.888Z,100374.44
2018-06-30T10:31:37.585Z,100383.63
2018-06-30T10:34:08.249Z,100379.55
2018-06-30T10:36:38.948Z,100367.98
2018-06-30T10:39:11.976Z,100374.48
2018-06-30T10:41:42.824Z,100371.38
2018-06-30T10:44:13.529Z,100369.94
2018-06-30T10:46:44.280Z,100370.36
2018-06-30T10:49:15.033Z,100356.83
2018-06-30T10:51:45.738Z,100360.36
2018-06-30T10:54:16.506Z,100358.72
2018-06-30T10:56:47.231Z,100363.22
2018-06-30T10:59:17.909Z,100364.29
2018-06-30T11:01:48.592Z,100352.41
2018-06-30T11:04:19.289Z,100356.49
2018-06-30T11:06:49.967Z,100357.97
2018-06-30T11:09:20.663Z,100352.08
2018-06-30T11:11:51.352Z,100352.20
2018-06-30T11:14:22.053Z,100359.30
2018-06-30T11:16:52.739Z,100356.19
2018-06-30T11:19:23.415Z,100355.24
2018-06-30T11:21:54.443Z,100352.18
2018-06-30T11:24:25.171Z,100345.00
2018-06-30T11:26:55.939Z,100337.27
2018-06-30T11:29:27.032Z,100348.02
2018-06-30T11:31:57.714Z,100343.47
2018-06-30T11:34:28.444Z,100339.92
2018-06-30T11:36:59.133Z,100331.94
2018-06-30T11:39:29.866Z,100343.59
2018-06-30T11:42:00.628Z,100347.31
2018-06-30T11:44:31.341Z,100338.77
2018-06-30T11:47:02.083Z,100335.48
2018-06-30T11:49:32.829Z,100336.75
2018-06-30T11:52:03.663Z,100323.48
2018-06-30T11:54:34.376Z,100319.64
2018-06-30T11:57:05.177Z,100330.00
2018-06-30T11:59:35.884Z,100318.14
2018-06-30T12:02:06.938Z,100320.21
2018-06-30T12:05:40.669Z,100316.30
2018-06-30T12:08:11.424Z,100324.83
2018-06-30T12:10:42.133Z,100320.86
2018-06-30T12:13:12.970Z,100312.05
2018-06-30T12:15:43.707Z,100302.06
2018-06-30T12:18:14.381Z,100322.53
2018-06-30T12:20:45.347Z,100311.44
2018-06-30T12:23:16.019Z,100315.53
2018-06-30T12:25:46.707Z,100309.34
2018-06-30T12:28:17.388Z,100317.08
2018-06-30T12:30:48.056Z,100304.64
2018-06-30T12:33:18.738Z,100311.42
2018-06-30T12:35:49.520Z,100305.24
2018-06-30T12:38:19.879Z,100305.16
2018-06-30T12:40:50.491Z,100304.50
2018-06-30T12:43:21.193Z,100299.46
2018-06-30T12:45:51.977Z,100303.95
2018-06-30T12:48:22.645Z,100299.89
2018-06-30T12:50:53.333Z,100301.55
2018-06-30T12:53:24.057Z,100310.31
2018-06-30T12:55:54.761Z,100305.09
2018-06-30T12:58:25.468Z,100299.58
2018-06-30T13:00:56.318Z,100292.23
2018-06-30T13:03:27.205Z,100288.55
2018-06-30T13:05:57.898Z,100290.28
2018-06-30T13:08:28.626Z,100288.88
2018-06-30T13:10:59.321Z,100281.45
2018-06-30T13:13:30.036Z,100277.75
2018-06-30T13:16:00.751Z,100280.71
2018-06-30T13:18:31.432Z,100279.66
2018-06-30T13:21:02.090Z,100272.70
2018-06-30T13:23:32.801Z,100267.13
2018-06-30T13:26:03.525Z,100264.51
2018-06-30T13:28:34.212Z,100258.07
2018-06-30T13:31:05.057Z,100265.30
2018-06-30T13:33:35.717Z,100253.97
2018-06-30T13:36:06.501Z,100264.16
2018-06-30T13:38:37.256Z,100251.27
2018-06-30T13:41:08.281Z,100246.48
2018-06-30T13:43:39.110Z,100249.16
2018-06-30T13:46:09.893Z,100251.98
2018-06-30T13:48:40.681Z,100252.49
2018-06-30T13:51:11.473Z,100247.81
2018-06-30T13:53:42.220Z,100248.98
2018-06-30T13:56:12.964Z,100246.87
2018-06-30T13:58:43.656Z,100243.04
2018-06-30T14:01:14.398Z,100237.94
2018-06-30T14:03:45.079Z,100241.11
2018-06-30T14:06:15.822Z,100243.38
2018-06-30T14:08:46.598Z,100246.22
2018-06-30T14:11:17.328Z,100236.19
2018-06-30T14:13:47.993Z,100240.09
2018-06-30T14:16:18.703Z,100227.84
2018-06-30T14:18:49.464Z,100228.48
2018-06-30T14:21:20.174Z,100230.55
2018-06-30T14:23:50.861Z,100226.05
2018-06-30T14:26:21.603Z,100221.66
2018-06-30T14:28:52.532Z,100221.73
2018-06-30T14:31:23.268Z,100224.10
2018-06-30T14:33:54.000Z,100223.17
2018-06-30T14:36:24.763Z,100223.17
2018-06-30T14:38:55.473Z,100224.88
2018-06-30T14:41:26.197Z,100214.50
2018-06-30T14:43:56.882Z,100214.09
2018-06-30T14:46:27.557Z,100224.76
2018-06-30T14:48:58.308Z,100216.70
2018-06-30T14:51:29.048Z,100212.93
2018-06-30T14:57:01.221Z,100204.88
2018-06-30T14:59:31.977Z,100215.63
2018-06-30T15:02:02.740Z,100204.72
2018-06-30T15:04:36.297Z,100206.59
2018-06-30T15:07:07.132Z,100214.67
2018-06-30T15:09:37.593Z,100198.53
2018-06-30T15:12:08.314Z,100196.83
2018-06-30T15:14:39.109Z,100206.80
2018-06-30T15:17:09.852Z,100198.83
2018-06-30T15:19:40.598Z,100206.06
2018-06-30T15:22:11.324Z,100209.63
2018-06-30T15:24:42.079Z,100198.20
2018-06-30T15:27:12.760Z,100195.76
2018-06-30T15:29:43.465Z,100198.48
2018-06-30T15:32:14.189Z,100202.59
2018-06-30T15:34:44.874Z,100194.58
2018-06-30T15:37:15.572Z,100193.25
2018-06-30T15:39:46.391Z,100194.42
2018-06-30T15:42:17.081Z,100197.03
2018-06-30T15:44:47.780Z,100192.10
2018-06-30T15:47:18.588Z,100190.88
2018-06-30T15:49:49.256Z,100182.97
2018-06-30T15:52:19.986Z,100189.08
2018-06-30T15:54:50.921Z,100189.17
2018-06-30T15:57:21.616Z,100190.19
2018-06-30T15:59:58.582Z,100190.38
2018-06-30T16:02:29.237Z,100186.39
2018-06-30T16:04:59.947Z,100198.59
2018-06-30T16:07:30.677Z,100202.89
2018-06-30T16:10:01.566Z,100196.36
2018-06-30T16:12:32.160Z,100193.13
2018-06-30T16:15:02.843Z,100190.85
2018-06-30T16:17:33.503Z,100195.06
2018-06-30T16:20:04.256Z,100191.80
2018-06-30T16:22:34.992Z,100192.27
2018-06-30T16:25:06.072Z,100182.44
2018-06-30T16:27:36.783Z,100194.03
2018-06-30T16:30:08.984Z,100193.63
2018-06-30T16:32:39.737Z,100185.83
2018-06-30T16:35:10.452Z,100190.72
2018-06-30T16:37:41.205Z,100186.77
2018-06-30T16:40:11.939Z,100185.91
2018-06-30T16:42:42.681Z,100191.89
2018-06-30T16:45:13.428Z,100178.93
2018-06-30T16:47:44.107Z,100183.48
2018-06-30T16:50:14.787Z,100171.28
2018-06-30T16:52:45.471Z,100176.83
2018-06-30T16:55:16.181Z,100181.14
2018-06-30T16:57:46.849Z,100177.53
2018-06-30T17:00:17.595Z,100173.71
2018-06-30T17:02:48.259Z,100172.92
2018-06-30T17:05:18.943Z,100175.43
2018-06-30T17:07:49.650Z,100173.23
2018-06-30T17:10:20.352Z,100165.80
2018-06-30T17:12:51.031Z,100172.30
2018-06-30T17:15:21.783Z,100175.60
2018-06-30T17:17:52.463Z,100174.52
2018-06-30T17:20:23.145Z,100177.23
2018-06-30T17:22:53.929Z,100170.77
2018-06-30T17:25:24.681Z,100178.22
2018-06-30T17:27:55.435Z,100172.46
2018-06-30T17:30:26.160Z,100177.22
2018-06-30T17:32:56.840Z,100171.30
2018-06-30T17:35:27.221Z,100166.08
2018-06-30T17:37:58.188Z,100174.10
2018-06-30T17:40:28.926Z,100174.00
2018-06-30T17:42:59.686Z,100177.42
2018-06-30T17:45:30.669Z,100186.56
2018-06-30T17:48:01.405Z,100178.83
2018-06-30T17:50:32.126Z,100179.67
2018-06-30T17:53:02.860Z,100179.19
2018-06-30T17:55:33.681Z,100179.73
2018-06-30T17:58:04.446Z,100182.59
2018-06-30T18:00:35.199Z,100184.85
2018-06-30T18:03:06.108Z,100180.47
2018-06-30T18:05:36.797Z,100182.67
2018-06-30T18:08:07.580Z,100177.45
2018-06-30T18:10:38.331Z,100186.25
2018-06-30T18:13:09.288Z,100189.16
2018-06-30T18:15:40.018Z,100192.87
2018-06-30T18:18:10.716Z,100193.72
2018-06-30T18:20:41.479Z,100194.87
2018-06-30T18:23:12.139Z,100192.00
2018-06-30T18:25:42.863Z,100189.98
2018-06-30T18:28:13.577Z,100184.59
2018-06-30T18:30:44.343Z,100188.47
2018-06-30T18:33:15.033Z,100190.83
2018-06-30T18:35:45.761Z,100190.84
2018-06-30T18:38:16.429Z,100195.89
2018-06-30T18:40:47.124Z,100192.52
2018-06-30T18:43:17.789Z,100196.90
2018-06-30T18:45:48.520Z,100198.92
2018-06-30T18:48:19.495Z,100204.64
2018-06-30T18:50:50.219Z,100201.38
2018-06-30T18:53:20.934Z,100200.03
2018-06-30T18:55:51.640Z,100197.99
2018-06-30T18:58:22.501Z,100201.98
2018-06-30T19:00:53.217Z,100204.17
2018-06-30T19:03:24.038Z,100206.02
2018-06-30T19:05:54.747Z,100200.19
2018-06-30T19:08:25.460Z,100205.73
2018-06-30T19:10:56.195Z,100209.24
2018-06-30T19:13:27.001Z,100218.11
2018-06-30T19:15:57.753Z,100219.26
2018-06-30T19:18:28.579Z,100216.73
2018-06-30T19:20:59.262Z,100216.67
2018-06-30T19:23:29.959Z,100223.65
2018-06-30T19:26:00.651Z,100222.56
2018-06-30T19:28:31.393Z,100222.84
2018-06-30T19:31:02.055Z,100231.39
2018-06-30T19:33:32.776Z,100233.64
2018-06-30T19:36:03.485Z,100231.94
2018-06-30T19:38:34.252Z,100237.76
2018-06-30T19:41:05.038Z,100248.92
2018-06-30T19:43:35.755Z,100255.09
2018-06-30T19:46:06.412Z,100250.13
2018-06-30T19:48:37.134Z,100246.98
2018-06-30T19:51:07.875Z,100256.03
2018-06-30T19:53:38.567Z,100258.57
2018-06-30T19:56:09.314Z,100258.41
2018-06-30T19:58:40.049Z,100254.19
2018-06-30T20:01:10.736Z,100258.83
2018-06-30T20:03:41.477Z,100260.37
2018-06-30T20:06:12.164Z,100266.88
2018-06-30T20:08:42.896Z,100267.61
2018-06-30T20:11:13.608Z,100271.91
2018-06-30T20:13:44.368Z,100279.63
2018-06-30T20:16:15.096Z,100279.53
2018-06-30T20:18:45.794Z,100278.91
2018-06-30T20:21:16.457Z,100284.78
2018-06-30T20:23:47.121Z,100283.51
2018-06-30T20:26:17.796Z,100291.08
2018-06-30T20:28:48.548Z,100293.86
2018-06-30T20:31:19.293Z,100295.64
2018-06-30T20:33:50.072Z,100297.41
2018-06-30T20:36:20.752Z,100301.58
2018-06-30T20:38:51.864Z,100301.31
2018-06-30T20:41:22.543Z,100307.38
2018-06-30T20:43:53.263Z,100301.44
2018-06-30T20:46:23.939Z,100308.23
2018-06-30T20:48:54.658Z,100298.42
2018-06-30T20:51:25.374Z,100307.45
2018-06-30T20:53:56.092Z,100304.00
2018-06-30T20:56:26.993Z,100303.22
2018-06-30T20:58:57.665Z,100299.95
2018-06-30T21:01:28.410Z,100310.97
2018-06-30T21:03:59.244Z,100298.46
2018-06-30T21:06:30.001Z,100310.56
2018-06-30T21:09:00.699Z,100314.80
2018-06-30T21:11:31.374Z,100318.45
2018-06-30T21:14:02.134Z,100323.44
2018-06-30T21:16:32.923Z,100319.44
2018-06-30T21:19:03.703Z,100323.59
2018-06-30T21:21:34.405Z,100327.53
2018-06-30T21:24:05.241Z,100328.33
2018-06-30T21:26:35.928Z,100332.03
2018-06-30T21:29:06.714Z,100335.84
2018-06-30T21:31:37.458Z,100331.83
2018-06-30T21:34:08.249Z,100330.17
2018-06-30T21:36:39.075Z,100335.28
2018-06-30T21:39:12.591Z,100339.44
2018-06-30T21:41:43.248Z,100342.49
2018-06-30T21:44:13.966Z,100346.69
2018-06-30T21:46:44.627Z,100340.52
2018-06-30T21:49:15.360Z,100341.39
2018-06-30T21:51:46.094Z,100348.86
2018-06-30T21:54:16.849Z,100350.83
2018-06-30T21:56:47.611Z,100354.22
2018-06-30T21:59:18.324Z,100354.65
2018-06-30T22:01:49.082Z,100354.17
2018-06-30T22:04:19.744Z,100357.12
2018-06-30T22:06:50.463Z,100351.63
2018-06-30T22:09:21.256Z,100361.27
2018-06-30T22:11:52.069Z,100361.52
2018-06-30T22:14:22.815Z,100367.00
2018-06-30T22:16:53.525Z,100364.34
2018-06-30T22:19:24.284Z,100365.69
2018-06-30T22:21:55.048Z,100368.52
2018-06-30T22:24:25.747Z,100372.05
2018-06-30T22:26:56.514Z,100370.33
2018-06-30T22:29:27.190Z,100369.50
2018-06-30T22:31:57.923Z,100373.53
2018-06-30T22:34:28.657Z,100379.36
2018-06-30T22:36:59.367Z,100376.18
2018-06-30T22:39:46.797Z,100381.03
2018-06-30T22:42:17.452Z,100386.11
2018-06-30T22:44:48.151Z,100382.61
2018-06-30T22:47:18.851Z,100383.56
2018-06-30T22:49:49.544Z,100391.08
2018-06-30T22:52:20.272Z,100389.87
2018-06-30T22:54:50.949Z,100388.29
2018-06-30T22:57:21.609Z,100380.30
2018-06-30T22:59:52.332Z,100383.06
2018-06-30T23:02:23.122Z,100375.19
2018-06-30T23:04:53.910Z,100383.77
2018-06-30T23:07:24.598Z,100388.61
2018-06-30T23:09:55.421Z,100392.97
2018-06-30T23:12:26.148Z,100394.44
2018-06-30T23:14:57.479Z,100394.66
2018-06-30T23:17:28.223Z,100393.06
2018-06-30T23:19:58.904Z,100389.66
2018-06-30T23:23:12.253Z,100385.79
2018-06-30T23:25:42.939Z,100390.55
2018-06-30T23:28:13.673Z,100392.23
2018-06-30T23:30:44.335Z,100393.17
2018-06-30T23:33:15.071Z,100393.65
2018-06-30T23:35:45.823Z,100394.93
2018-06-30T23:38:16.549Z,100401.47
2018-06-30T23:40:47.208Z,100401.94
2018-06-30T23:43:17.931Z,100399.73
2018-06-30T23:45:48.693Z,100398.48
2018-06-30T23:48:19.413Z,100400.63
2018-06-30T23:50:50.098Z,100401.34
2018-06-30T23:53:20.807Z,100402.02
2018-06-30T23:55:51.515Z,100394.56
2018-06-30T23:58:22.218Z,100400.48
